Time;durP1;ratioP1;P1;durP2;ratioP2;P2;SDS_P1;SDS_P2;PMS_P1;PMS_P2;Temp;Humidity;BMP_temperature;BMP_pressure;BME280_temperature;BME280_humidity;BME280_pressure;Samples;Min_cycle;Max_cycle;Signal;HPM_P1;HPM_P2
2022/07/28 00:01:05;;;;;;;4.22;3.85;;;17.30;99.90;;;;;;5036677;28;20404;-72
2022/07/28 00:03:37;;;;;;;5.13;4.68;;;17.20;99.90;;;;;;5025851;28;20042;-72
2022/07/28 00:06:09;;;;;;;4.45;4.05;;;17.10;99.90;;;;;;5034702;28;20063;-72
2022/07/28 00:08:40;;;;;;;5.50;4.40;;;17.00;99.90;;;;;;5043280;28;20056;-72
2022/07/28 00:11:13;;;;;;;6.00;4.38;;;17.00;99.90;;;;;;5035742;28;20038;-72
2022/07/28 00:13:44;;;;;;;5.30;4.40;;;17.00;99.90;;;;;;5045657;28;20052;-72
2022/07/28 00:16:16;;;;;;;6.25;4.57;;;17.00;99.90;;;;;;5037544;28;20041;-72
2022/07/28 00:18:48;;;;;;;4.50;4.10;;;16.90;99.90;;;;;;5020692;28;20042;-72
2022/07/28 00:21:20;;;;;;;4.90;4.43;;;16.90;99.90;;;;;;5034805;28;20374;-72
2022/07/28 00:23:52;;;;;;;4.30;3.90;;;16.90;99.90;;;;;;5032069;28;20037;-72
2022/07/28 00:26:23;;;;;;;5.13;4.03;;;16.90;99.90;;;;;;5058180;28;20192;-72
2022/07/28 00:28:55;;;;;;;5.10;4.32;;;16.90;99.90;;;;;;5015284;28;20489;-72
2022/07/28 00:31:27;;;;;;;5.28;4.45;;;16.80;99.90;;;;;;5040450;28;20041;-72
2022/07/28 00:33:53;;;;;;;5.55;4.80;;;16.90;99.90;;;;;;5039571;28;20044;-72
2022/07/28 00:36:25;;;;;;;4.80;4.07;;;16.90;99.90;;;;;;5055544;23;20058;-72
2022/07/28 00:38:57;;;;;;;5.85;4.38;;;16.90;99.90;;;;;;5039692;28;20029;-72
2022/07/28 00:41:29;;;;;;;5.18;4.25;;;16.90;99.90;;;;;;5040909;28;20398;-72
2022/07/28 00:44:03;;;;;;;4.45;3.95;;;16.90;99.90;;;;;;5040236;28;20053;-72
2022/07/28 00:46:35;;;;;;;4.80;4.30;;;16.80;99.90;;;;;;5010379;28;20045;-72
2022/07/28 00:49:07;;;;;;;8.27;4.47;;;16.80;99.90;;;;;;4999700;28;20068;-72
2022/07/28 00:51:39;;;;;;;4.90;4.15;;;16.90;99.90;;;;;;5018887;28;20543;-73
2022/07/28 00:54:11;;;;;;;4.53;4.13;;;16.80;99.90;;;;;;5002462;28;20517;-73
2022/07/28 00:56:43;;;;;;;4.88;3.92;;;16.70;99.90;;;;;;5003204;28;20053;-72
2022/07/28 00:59:14;;;;;;;4.68;4.28;;;16.60;99.90;;;;;;5017392;28;20711;-72
2022/07/28 01:01:47;;;;;;;5.47;3.92;;;16.60;99.90;;;;;;4995002;28;20057;-71
2022/07/28 01:04:14;;;;;;;4.90;4.50;;;16.50;99.90;;;;;;4998066;28;20042;-72
2022/07/28 01:07:07;;;;;;;5.03;4.45;;;16.50;99.90;;;;;;5014176;28;20046;-72
2022/07/28 01:10:07;;;;;;;5.25;4.22;;;16.30;99.90;;;;;;5016893;28;20042;-72
2022/07/28 01:12:48;;;;;;;5.40;4.88;;;16.30;99.90;;;;;;4987006;28;20064;-72
2022/07/28 01:15:30;;;;;;;5.28;4.78;;;16.20;99.90;;;;;;5019265;28;20048;-72
2022/07/28 01:18:19;;;;;;;5.15;4.65;;;16.20;99.90;;;;;;5015880;28;20092;-72
2022/07/28 01:21:03;;;;;;;5.72;5.18;;;16.30;99.90;;;;;;5016456;28;20485;-73
2022/07/28 01:24:09;;;;;;;6.38;5.10;;;16.30;99.90;;;;;;5009304;28;20056;-72
2022/07/28 01:26:47;;;;;;;6.30;4.78;;;16.30;99.90;;;;;;5015295;28;20428;-72
2022/07/28 01:29:19;;;;;;;;;;;16.30;99.90;;;;;;4999049;28;20045;-72
2022/07/28 01:32:05;;;;;;;5.90;4.90;;;16.30;99.90;;;;;;5014831;28;19925;-71
2022/07/28 01:34:45;;;;;;;5.15;4.70;;;16.30;99.90;;;;;;5009969;28;20048;-72
2022/07/28 01:37:23;;;;;;;7.45;5.10;;;16.30;99.90;;;;;;5021451;28;20041;-72
2022/07/28 01:39:53;;;;;;;5.40;4.90;;;16.30;99.90;;;;;;5011131;28;20072;-72
2022/07/28 01:42:30;;;;;;;6.35;5.28;;;16.30;99.90;;;;;;5007077;28;20095;-73
2022/07/28 01:45:03;;;;;;;7.05;6.35;;;16.30;99.90;;;;;;5007433;28;20046;-72
2022/07/28 01:47:36;;;;;;;5.97;5.35;;;16.20;99.90;;;;;;5007585;28;20053;-72
2022/07/28 01:50:10;;;;;;;5.93;5.40;;;16.20;99.90;;;;;;5021015;28;20412;-72
2022/07/28 01:52:44;;;;;;;5.82;5.32;;;16.10;99.90;;;;;;5004752;28;20042;-72
2022/07/28 01:55:12;;;;;;;5.43;4.93;;;16.10;99.90;;;;;;5021935;28;20513;-72
2022/07/28 01:57:46;;;;;;;5.50;4.93;;;16.00;99.90;;;;;;5018746;28;20050;-72
2022/07/28 02:00:19;;;;;;;5.65;5.15;;;16.00;99.90;;;;;;5015550;28;20041;-72
2022/07/28 02:02:52;;;;;;;6.15;5.65;;;16.10;99.90;;;;;;5010134;28;20165;-72
2022/07/28 02:05:25;;;;;;;6.47;5.90;;;16.10;99.90;;;;;;5017501;28;20041;-73
2022/07/28 02:08:00;;;;;;;6.95;6.35;;;16.10;99.90;;;;;;5024275;28;20045;-72
2022/07/28 02:10:33;;;;;;;6.28;5.68;;;16.00;99.90;;;;;;5017815;28;20532;-72
2022/07/28 02:13:05;;;;;;;8.10;6.15;;;16.00;99.90;;;;;;5020904;28;20049;-72
2022/07/28 02:15:39;;;;;;;6.20;5.60;;;16.00;99.90;;;;;;5017598;28;20038;-72
2022/07/28 02:18:11;;;;;;;6.32;5.78;;;16.00;99.90;;;;;;5022873;28;20033;-72
2022/07/28 02:20:43;;;;;;;6.88;6.18;;;16.00;99.90;;;;;;5018224;28;20405;-73
2022/07/28 02:23:15;;;;;;;7.18;6.28;;;15.90;99.90;;;;;;5024207;28;20049;-72
2022/07/28 02:25:49;;;;;;;7.72;6.47;;;15.80;99.90;;;;;;5018101;28;20041;-72
2022/07/28 02:28:22;;;;;;;7.38;6.68;;;15.80;99.90;;;;;;5022361;28;20405;-72
2022/07/28 02:31:03;;;;;;;7.47;6.75;;;15.80;99.90;;;;;;5004019;28;20041;-72
2022/07/28 02:33:36;;;;;;;6.65;6.03;;;15.70;99.90;;;;;;5023366;28;20046;-72
2022/07/28 02:36:25;;;;;;;7.70;6.90;;;15.60;99.90;;;;;;4990932;28;20042;-72
2022/07/28 02:38:55;;;;;;;6.78;6.18;;;15.60;99.90;;;;;;5004957;28;20140;-72
2022/07/28 02:41:30;;;;;;;6.25;5.75;;;15.60;99.90;;;;;;5005284;28;20046;-72
2022/07/28 02:44:11;;;;;;;7.50;5.68;;;15.60;99.90;;;;;;5012035;28;20042;-72
2022/07/28 02:46:50;;;;;;;6.72;6.00;;;15.60;99.90;;;;;;5020547;28;20042;-72
2022/07/28 02:49:27;;;;;;;9.68;6.93;;;15.50;99.90;;;;;;5007190;28;20054;-72
2022/07/28 02:52:00;;;;;;;7.47;6.50;;;15.50;99.90;;;;;;5016474;28;20405;-72
2022/07/28 02:54:34;;;;;;;7.03;6.32;;;15.50;99.90;;;;;;5020533;28;20132;-72
2022/07/28 02:57:09;;;;;;;7.05;6.35;;;15.50;99.90;;;;;;5008076;28;20626;-72
2022/07/28 02:59:42;;;;;;;6.30;5.68;;;15.50;99.90;;;;;;5022614;28;20049;-72
2022/07/28 03:02:20;;;;;;;6.65;6.05;;;15.50;99.90;;;;;;5017779;28;20041;-72
2022/07/28 03:04:58;;;;;;;7.50;6.80;;;15.40;99.90;;;;;;5020114;28;20060;-72
2022/07/28 03:07:31;;;;;;;8.20;6.18;;;15.40;99.90;;;;;;5014036;28;20049;-72
2022/07/28 03:10:04;;;;;;;6.90;5.88;;;15.40;99.90;;;;;;4999732;28;20050;-72
2022/07/28 03:12:35;;;;;;;7.22;6.53;;;15.30;99.90;;;;;;5022437;28;20052;-72
2022/07/28 03:15:07;;;;;;;6.95;6.30;;;15.40;99.90;;;;;;5018166;28;20045;-72
2022/07/28 03:17:40;;;;;;;7.35;6.65;;;15.40;99.90;;;;;;5022729;28;20053;-72
2022/07/28 03:20:12;;;;;;;7.78;6.95;;;15.40;99.90;;;;;;5019068;28;20058;-73
2022/07/28 03:22:44;;;;;;;7.60;5.80;;;15.40;99.90;;;;;;5022826;28;20041;-72
2022/07/28 03:25:25;;;;;;;7.88;5.88;;;15.30;99.90;;;;;;5019661;28;20041;-72
2022/07/28 03:27:57;;;;;;;7.13;6.43;;;15.30;99.90;;;;;;5017287;28;20037;-72
2022/07/28 03:30:37;;;;;;;7.78;6.90;;;15.30;99.90;;;;;;5017838;28;20042;-72
2022/07/28 03:33:10;;;;;;;7.30;6.60;;;15.30;99.90;;;;;;5020515;28;20045;-72
2022/07/28 03:35:47;;;;;;;8.63;6.10;;;15.30;99.90;;;;;;5016932;28;20038;-72
2022/07/28 03:38:28;;;;;;;7.95;6.57;;;15.30;99.90;;;;;;5020496;28;20052;-72
2022/07/28 03:41:01;;;;;;;6.68;6.07;;;15.30;99.90;;;;;;5004347;28;20042;-73
2022/07/28 03:43:33;;;;;;;;;;;15.30;99.90;;;;;;5016845;28;20051;-73
2022/07/28 03:46:07;;;;;;;8.45;5.60;;;15.20;99.90;;;;;;5017390;28;20567;-72
2022/07/28 03:48:38;;;;;;;;;;;15.20;99.90;;;;;;5016184;28;20045;-72
2022/07/28 03:51:10;;;;;;;6.65;6.05;;;15.20;99.90;;;;;;5020415;28;19964;-73
2022/07/28 03:53:42;;;;;;;7.20;6.50;;;15.20;99.90;;;;;;5020734;28;20042;-72
2022/07/28 03:56:14;;;;;;;6.35;5.75;;;15.20;99.90;;;;;;5022380;28;20037;-72
2022/07/28 03:58:46;;;;;;;7.50;5.90;;;15.10;99.90;;;;;;5014029;28;20037;-72
2022/07/28 04:01:18;;;;;;;6.93;6.32;;;15.00;99.90;;;;;;5011711;28;20045;-73
2022/07/28 04:03:50;;;;;;;8.50;6.10;;;15.00;99.90;;;;;;5001344;28;20042;-72
2022/07/28 04:06:22;;;;;;;6.80;6.13;;;14.90;99.90;;;;;;5016588;28;20069;-73
2022/07/28 04:08:53;;;;;;;9.55;6.70;;;14.90;99.90;;;;;;5003798;28;20042;-73
2022/07/28 04:11:25;;;;;;;8.35;6.18;;;14.90;99.90;;;;;;5018520;28;20033;-72
2022/07/28 04:13:57;;;;;;;10.13;6.25;;;14.90;99.90;;;;;;4997713;28;20052;-72
2022/07/28 04:16:28;;;;;;;13.07;7.00;;;14.90;99.90;;;;;;5019265;28;20053;-71
2022/07/28 04:19:00;;;;;;;12.00;6.63;;;15.00;99.90;;;;;;5025164;28;20047;-72
2022/07/28 04:21:32;;;;;;;10.98;6.47;;;15.00;99.90;;;;;;5011508;28;20041;-72
2022/07/28 04:24:04;;;;;;;7.97;5.88;;;14.90;99.90;;;;;;5009499;28;20133;-72
2022/07/28 04:26:36;;;;;;;9.23;6.63;;;14.90;99.90;;;;;;5013002;28;20049;-72
2022/07/28 04:29:08;;;;;;;11.48;6.60;;;15.00;99.90;;;;;;5014735;28;20056;-72
2022/07/28 04:31:39;;;;;;;8.25;6.88;;;15.00;99.90;;;;;;5017834;28;20042;-72
2022/07/28 04:34:13;;;;;;;11.68;6.35;;;15.00;99.90;;;;;;5020203;28;20069;-72
2022/07/28 04:36:44;;;;;;;9.27;6.05;;;15.00;99.90;;;;;;5022964;28;20050;-72
2022/07/28 04:39:16;;;;;;;9.32;7.25;;;15.10;99.90;;;;;;5025587;28;20056;-73
2022/07/28 04:41:49;;;;;;;13.07;6.85;;;15.10;99.90;;;;;;5010694;28;20053;-72
2022/07/28 04:44:21;;;;;;;11.00;7.40;;;15.10;99.90;;;;;;5012000;28;20052;-72
2022/07/28 04:46:52;;;;;;;10.40;6.30;;;15.20;99.90;;;;;;5005868;28;20489;-72
2022/07/28 04:49:24;;;;;;;13.43;6.68;;;15.20;99.90;;;;;;5014844;28;20046;-71
2022/07/28 04:51:56;;;;;;;15.38;7.40;;;15.20;99.90;;;;;;4999099;28;20053;-72
2022/07/28 04:54:28;;;;;;;17.08;6.47;;;15.30;99.90;;;;;;5017379;28;20042;-72
2022/07/28 04:56:59;;;;;;;15.88;7.30;;;15.30;99.90;;;;;;5013025;28;20052;-72
2022/07/28 04:59:31;;;;;;;18.33;7.65;;;15.40;99.90;;;;;;4996843;28;20058;-71
2022/07/28 05:02:04;;;;;;;15.30;7.85;;;15.50;99.90;;;;;;5012016;28;20049;-72
2022/07/28 05:04:35;;;;;;;11.38;7.57;;;15.50;99.90;;;;;;5006474;28;20073;-72
2022/07/28 05:07:07;;;;;;;10.88;7.43;;;15.50;99.90;;;;;;5012964;28;20559;-72
2022/07/28 05:09:39;;;;;;;10.25;7.68;;;15.60;99.90;;;;;;5005982;28;20056;-71
2022/07/28 05:12:11;;;;;;;16.08;10.95;;;15.70;99.90;;;;;;5020243;28;20433;-72
2022/07/28 05:14:43;;;;;;;15.25;10.88;;;15.70;99.90;;;;;;5023592;28;20048;-72
2022/07/28 05:17:14;;;;;;;16.38;11.73;;;15.70;99.90;;;;;;5027153;28;20513;-72
2022/07/28 05:19:46;;;;;;;13.52;9.90;;;15.80;99.90;;;;;;5028240;28;20045;-72
2022/07/28 05:22:18;;;;;;;11.93;9.88;;;15.80;99.90;;;;;;5014371;28;20045;-72
2022/07/28 05:24:50;;;;;;;13.05;9.60;;;15.80;99.90;;;;;;5009803;28;20515;-72
2022/07/28 05:27:21;;;;;;;11.07;9.70;;;15.80;99.90;;;;;;5013036;28;20038;-72
2022/07/28 05:29:53;;;;;;;10.57;9.55;;;15.80;99.90;;;;;;5015649;28;20042;-71
2022/07/28 05:32:20;;;;;;;11.65;8.85;;;15.90;99.90;;;;;;5019763;28;20120;-71
2022/07/28 05:34:52;;;;;;;10.38;9.30;;;15.90;99.90;;;;;;5019222;28;20042;-71
2022/07/28 05:37:24;;;;;;;10.43;9.23;;;15.90;99.90;;;;;;5017478;28;20049;-71
2022/07/28 05:39:50;;;;;;;10.90;9.73;;;16.00;99.90;;;;;;5018648;28;20029;-73
2022/07/28 05:42:24;;;;;;;11.82;10.40;;;16.00;99.90;;;;;;5021075;28;20056;-71
2022/07/28 05:44:55;;;;;;;10.98;9.75;;;16.00;99.90;;;;;;5012661;28;20042;-70
2022/07/28 05:47:27;;;;;;;14.60;9.63;;;16.00;99.90;;;;;;5013777;28;20050;-70
2022/07/28 05:50:00;;;;;;;12.05;9.50;;;16.10;99.90;;;;;;5017583;28;20045;-70
2022/07/28 05:52:32;;;;;;;11.27;10.05;;;16.10;99.90;;;;;;5012788;28;20034;-70
2022/07/28 05:54:58;;;;;;;10.77;9.68;;;16.20;99.90;;;;;;5016836;28;20038;-70
2022/07/28 05:57:30;;;;;;;11.55;10.32;;;16.30;99.90;;;;;;5009186;28;20068;-70
2022/07/28 06:00:05;;;;;;;13.02;11.40;;;16.40;99.90;;;;;;5003171;28;20074;-70
2022/07/28 06:02:41;;;;;;;12.82;10.75;;;16.40;99.90;;;;;;5017234;28;20124;-71
2022/07/28 06:05:12;;;;;;;13.02;9.88;;;16.50;99.90;;;;;;4995915;28;20148;-70
2022/07/28 06:07:39;;;;;;;12.32;10.68;;;16.60;99.90;;;;;;5008550;28;20463;-69
2022/07/28 06:10:13;;;;;;;14.82;11.48;;;16.70;99.90;;;;;;5017546;28;20042;-69
2022/07/28 06:12:50;;;;;;;14.43;11.80;;;16.80;99.90;;;;;;5021354;28;20049;-70
2022/07/28 06:15:21;;;;;;;13.13;11.52;;;16.80;99.90;;;;;;5004006;28;20168;-70
2022/07/28 06:17:56;;;;;;;12.40;10.57;;;16.90;99.90;;;;;;5020352;28;20057;-71
2022/07/28 06:20:29;;;;;;;12.60;10.40;;;17.00;99.90;;;;;;4999764;28;20506;-69
2022/07/28 06:23:00;;;;;;;11.02;9.93;;;17.10;99.90;;;;;;5015849;28;20579;-70
2022/07/28 06:25:32;;;;;;;11.63;10.48;;;17.20;99.90;;;;;;5016030;28;20446;-70
2022/07/28 06:28:04;;;;;;;13.02;10.57;;;17.30;99.90;;;;;;5014615;28;20053;-70
2022/07/28 06:30:36;;;;;;;12.15;10.90;;;17.50;99.90;;;;;;5005584;28;20054;-70
2022/07/28 06:33:07;;;;;;;14.65;10.07;;;17.60;99.90;;;;;;4998109;28;20069;-70
2022/07/28 06:35:39;;;;;;;12.55;10.43;;;17.60;99.90;;;;;;5021705;28;20061;-70
2022/07/28 06:38:11;;;;;;;12.05;10.05;;;17.80;99.90;;;;;;5023103;28;20038;-69
2022/07/28 06:40:43;;;;;;;10.80;9.70;;;17.80;99.90;;;;;;5018354;28;20072;-70
2022/07/28 06:43:15;;;;;;;11.80;9.98;;;17.90;99.90;;;;;;5010278;28;20498;-70
2022/07/28 06:45:46;;;;;;;11.40;10.20;;;18.00;99.90;;;;;;4998140;28;20538;-69
2022/07/28 06:48:18;;;;;;;10.45;9.15;;;18.10;99.90;;;;;;5020396;28;20060;-70
2022/07/28 06:50:50;;;;;;;11.23;10.07;;;18.10;99.90;;;;;;5006548;28;20444;-70
2022/07/28 06:53:22;;;;;;;11.43;10.32;;;18.20;99.90;;;;;;5022838;28;20045;-69
2022/07/28 06:55:54;;;;;;;11.90;10.60;;;18.30;99.90;;;;;;5019300;28;20442;-70
2022/07/28 06:58:25;;;;;;;12.93;10.25;;;18.40;99.90;;;;;;5021256;28;20049;-71
2022/07/28 07:00:57;;;;;;;14.20;11.63;;;18.50;99.90;;;;;;5003012;28;20045;-70
2022/07/28 07:03:29;;;;;;;11.63;9.35;;;18.60;99.90;;;;;;5030644;28;20041;-69
2022/07/28 07:06:00;;;;;;;13.75;10.13;;;18.70;99.90;;;;;;5019583;28;20034;-70
2022/07/28 07:08:33;;;;;;;10.73;9.63;;;18.80;99.90;;;;;;5007790;28;20686;-71
2022/07/28 07:11:05;;;;;;;10.70;9.60;;;18.90;99.90;;;;;;5021605;28;20037;-70
2022/07/28 07:13:32;;;;;;;10.23;9.18;;;19.00;99.90;;;;;;5013876;28;20041;-70
2022/07/28 07:15:59;;;;;;;9.68;8.77;;;19.10;99.90;;;;;;5021100;28;20100;-69
2022/07/28 07:18:30;;;;;;;10.00;8.90;;;19.20;99.90;;;;;;5015188;28;20121;-69
2022/07/28 07:21:02;;;;;;;9.40;8.48;;;19.30;99.90;;;;;;5020141;28;20045;-69
2022/07/28 07:23:34;;;;;;;9.80;8.80;;;19.40;99.90;;;;;;5014423;28;20052;-70
2022/07/28 07:26:06;;;;;;;10.05;8.90;;;19.50;99.90;;;;;;5002303;28;20041;-69
2022/07/28 07:28:38;;;;;;;9.32;7.95;;;19.60;99.90;;;;;;5013157;28;20522;-69
2022/07/28 07:31:09;;;;;;;9.05;8.18;;;19.70;99.90;;;;;;4991786;28;20049;-70
2022/07/28 07:33:41;;;;;;;12.50;8.88;;;19.80;99.90;;;;;;5017867;28;20038;-69
2022/07/28 07:36:13;;;;;;;10.50;9.20;;;19.90;99.90;;;;;;5016489;28;20124;-70
2022/07/28 07:38:44;;;;;;;8.82;8.02;;;19.90;99.90;;;;;;5014309;28;20038;-70
2022/07/28 07:41:17;;;;;;;9.63;8.50;;;20.10;99.90;;;;;;5000205;28;20045;-70
2022/07/28 07:43:49;;;;;;;9.30;8.18;;;20.10;99.90;;;;;;5012592;28;20049;-72
2022/07/28 07:46:21;;;;;;;8.75;7.85;;;20.20;99.90;;;;;;4995508;28;20050;-71
2022/07/28 07:48:52;;;;;;;9.85;8.27;;;20.30;99.90;;;;;;5001683;28;20042;-71
2022/07/28 07:51:25;;;;;;;9.20;8.35;;;20.50;99.90;;;;;;5009882;28;20141;-69
2022/07/28 07:53:57;;;;;;;8.63;7.93;;;20.60;99.90;;;;;;5016104;28;20536;-69
2022/07/28 07:56:29;;;;;;;10.93;8.50;;;20.70;99.90;;;;;;5014865;28;20061;-69
2022/07/28 07:59:00;;;;;;;11.00;8.75;;;20.80;99.90;;;;;;5014573;28;20111;-69
2022/07/28 08:01:32;;;;;;;9.70;7.75;;;20.90;99.90;;;;;;5015480;28;20052;-71
2022/07/28 08:04:04;;;;;;;8.52;7.55;;;21.10;99.90;;;;;;5022199;28;20641;-70
2022/07/28 08:06:31;;;;;;;9.15;8.25;;;21.20;99.90;;;;;;5031156;28;20048;-71
2022/07/28 08:09:02;;;;;;;9.75;8.40;;;21.20;99.90;;;;;;4997250;28;20485;-70
2022/07/28 08:11:34;;;;;;;10.60;8.32;;;21.40;99.90;;;;;;5005220;28;20075;-70
2022/07/28 08:14:06;;;;;;;8.38;7.60;;;21.40;99.90;;;;;;5019297;28;20037;-70
2022/07/28 08:16:37;;;;;;;7.45;6.70;;;21.60;99.90;;;;;;5027873;28;20037;-71
2022/07/28 08:19:09;;;;;;;11.05;7.68;;;21.70;99.90;;;;;;5016258;28;20053;-70
2022/07/28 08:21:41;;;;;;;8.57;6.68;;;21.70;99.90;;;;;;5011218;28;20042;-70
2022/07/28 08:24:14;;;;;;;9.43;7.95;;;21.90;99.90;;;;;;5014143;28;20099;-71
2022/07/28 08:26:45;;;;;;;10.07;7.72;;;22.00;99.90;;;;;;5007557;28;20042;-70
2022/07/28 08:29:17;;;;;;;7.63;7.00;;;22.10;99.90;;;;;;5022357;28;20132;-68
2022/07/28 08:31:49;;;;;;;11.60;8.80;;;22.20;99.90;;;;;;5018728;28;20045;-68
2022/07/28 08:34:21;;;;;;;10.95;8.68;;;22.30;99.90;;;;;;5008594;28;20042;-68
2022/07/28 08:36:53;;;;;;;8.98;8.18;;;22.40;99.90;;;;;;5027682;28;20084;-69
2022/07/28 08:39:24;;;;;;;8.35;7.05;;;22.50;99.90;;;;;;5031848;28;20785;-68
2022/07/28 08:42:09;;;;;;;8.35;7.45;;;22.60;99.90;;;;;;5000133;28;20045;-68
2022/07/28 08:45:00;;;;;;;8.55;7.63;;;22.70;99.90;;;;;;5020711;28;20033;-67
2022/07/28 08:47:34;;;;;;;8.75;7.30;;;22.90;99.90;;;;;;5013326;28;20413;-68
2022/07/28 08:50:06;;;;;;;10.20;8.00;;;23.00;99.90;;;;;;5013686;28;20124;-69
2022/07/28 08:52:39;;;;;;;7.97;7.28;;;23.10;99.90;;;;;;5012004;28;20041;-69
2022/07/28 08:55:13;;;;;;;7.30;6.35;;;23.20;99.90;;;;;;5013233;28;20042;-68
2022/07/28 08:57:46;;;;;;;12.07;7.95;;;23.30;99.90;;;;;;5012594;28;20108;-69
2022/07/28 09:00:17;;;;;;;7.95;6.97;;;23.50;99.90;;;;;;5020775;28;20048;-68
2022/07/28 09:02:50;;;;;;;9.38;7.10;;;23.60;99.90;;;;;;5015580;28;20044;-69
2022/07/28 09:05:23;;;;;;;7.57;6.55;;;23.70;99.90;;;;;;5008741;28;20042;-68
2022/07/28 09:07:54;;;;;;;7.50;6.80;;;23.80;99.90;;;;;;4983970;28;20417;-69
2022/07/28 09:10:26;;;;;;;9.05;6.68;;;23.90;99.90;;;;;;5010350;28;20042;-68
2022/07/28 09:12:58;;;;;;;7.45;6.22;;;24.00;99.90;;;;;;5019377;28;20045;-68
2022/07/28 09:15:31;;;;;;;7.55;6.68;;;24.10;99.90;;;;;;5006106;28;20068;-68
2022/07/28 09:18:03;;;;;;;9.57;6.93;;;24.10;99.90;;;;;;5014371;28;20045;-69
2022/07/28 09:20:36;;;;;;;9.88;5.93;;;24.10;99.90;;;;;;5013486;28;20080;-68
2022/07/28 09:23:09;;;;;;;8.38;6.35;;;24.20;99.90;;;;;;5025574;28;20034;-68
2022/07/28 09:25:41;;;;;;;8.10;6.07;;;24.30;99.90;;;;;;5064222;22;20045;-72
2022/07/28 09:28:17;;;;;;;6.13;5.50;;;24.50;99.90;;;;;;5052083;28;20059;-72
2022/07/28 09:30:49;;;;;;;10.30;6.40;;;24.60;99.90;;;;;;5071901;28;20047;-73
2022/07/28 09:33:31;;;;;;;7.30;6.50;;;24.70;99.90;;;;;;5061495;28;20053;-73
2022/07/28 09:35:58;;;;;;;9.02;6.07;;;24.80;99.90;;;;;;5068782;28;20040;-73
2022/07/28 09:38:28;;;;;;;7.80;6.15;;;25.00;99.90;;;;;;5071405;28;20648;-73
2022/07/28 09:41:07;;;;;;;8.38;5.88;;;25.10;99.90;;;;;;5068196;28;20535;-72
2022/07/28 09:43:44;;;;;;;7.10;6.00;;;25.20;99.90;;;;;;5069964;28;20064;-72
2022/07/28 09:46:18;;;;;;;7.28;6.57;;;25.30;99.90;;;;;;5057554;28;20055;-72
2022/07/28 09:48:58;;;;;;;8.18;6.18;;;25.40;99.90;;;;;;5066959;28;20050;-72
2022/07/28 09:51:32;;;;;;;6.22;5.72;;;25.50;99.90;;;;;;5061558;28;20056;-72
2022/07/28 09:54:16;;;;;;;5.25;4.78;;;25.50;99.90;;;;;;5064116;28;20397;-72
2022/07/28 09:56:47;;;;;;;7.30;5.30;;;25.60;99.90;;;;;;5055686;28;20397;-72
2022/07/28 09:59:20;;;;;;;6.40;5.60;;;25.70;99.90;;;;;;5071970;28;20044;-73
2022/07/28 10:01:53;;;;;;;;;;;25.80;99.90;;;;;;5072175;28;20502;-72
2022/07/28 10:04:33;;;;;;;5.78;5.20;;;25.80;99.90;;;;;;5061300;28;19924;-73
2022/07/28 10:07:05;;;;;;;6.38;5.45;;;25.90;99.90;;;;;;5070901;28;20056;-72
2022/07/28 10:09:38;;;;;;;9.75;5.72;;;26.10;99.90;;;;;;5054539;28;20052;-73
2022/07/28 10:12:20;;;;;;;6.43;4.85;;;26.20;99.90;;;;;;5072008;28;20032;-72
2022/07/28 10:14:54;;;;;;;6.45;5.05;;;26.20;99.90;;;;;;5069778;28;20055;-73
2022/07/28 10:17:31;;;;;;;7.38;4.80;;;26.30;99.80;;;;;;5062015;28;20130;-72
2022/07/28 10:20:05;;;;;;;6.25;4.63;;;26.40;99.80;;;;;;5068735;28;20626;-72
2022/07/28 10:22:37;;;;;;;11.05;5.28;;;26.50;99.10;;;;;;5074385;28;20044;-73
2022/07/28 10:25:11;;;;;;;7.37;4.10;;;26.60;98.70;;;;;;5067988;28;20163;-72
2022/07/28 10:27:46;;;;;;;6.70;5.13;;;26.70;98.70;;;;;;5068037;28;20290;-72
2022/07/28 10:30:18;;;;;;;4.70;4.30;;;26.80;97.40;;;;;;5053841;28;20447;-73
2022/07/28 10:32:53;;;;;;;5.50;4.13;;;26.80;97.40;;;;;;5072662;28;20042;-72
2022/07/28 10:35:26;;;;;;;5.00;3.60;;;26.90;96.90;;;;;;5070334;28;20099;-72
2022/07/28 10:38:02;;;;;;;4.10;3.70;;;26.90;95.30;;;;;;5050789;28;20432;-72
2022/07/28 10:40:39;;;;;;;4.85;4.45;;;26.90;94.00;;;;;;5066752;28;20075;-72
2022/07/28 10:43:12;;;;;;;5.50;4.10;;;26.90;95.50;;;;;;5059641;28;20045;-72
2022/07/28 10:45:44;;;;;;;6.15;4.35;;;27.00;96.00;;;;;;5052278;28;20744;-73
2022/07/28 10:48:17;;;;;;;5.57;4.05;;;27.20;96.10;;;;;;5064787;28;20067;-72
2022/07/28 10:50:49;;;;;;;9.15;3.58;;;27.30;94.60;;;;;;5046055;28;20087;-72
2022/07/28 10:53:44;;;;;;;4.88;3.92;;;27.40;93.50;;;;;;5046347;28;20053;-72
2022/07/28 10:56:26;;;;;;;6.10;3.65;;;27.60;93.20;;;;;;5071524;28;20090;-72
2022/07/28 10:59:07;;;;;;;4.78;4.28;;;27.60;93.00;;;;;;5070616;28;20123;-72
2022/07/28 11:01:39;;;;;;;7.85;3.67;;;27.60;93.20;;;;;;5071442;28;20837;-72
2022/07/28 11:05:00;;;;;;;7.20;3.78;;;27.20;92.80;;;;;;5072118;28;20037;-73
2022/07/28 11:07:38;;;;;;;3.90;3.60;;;27.20;92.40;;;;;;5070384;28;20044;-73
2022/07/28 11:10:15;;;;;;;5.68;3.90;;;27.30;92.20;;;;;;5070044;28;20044;-73
2022/07/28 11:12:52;;;;;;;3.33;3.00;;;27.40;91.80;;;;;;5070431;28;20047;-72
2022/07/28 11:15:30;;;;;;;4.50;3.08;;;27.40;90.90;;;;;;5073053;28;20036;-73
2022/07/28 11:18:07;;;;;;;4.65;3.00;;;27.40;87.70;;;;;;5058812;28;20036;-73
2022/07/28 11:20:51;;;;;;;3.70;2.58;;;27.50;88.50;;;;;;5070505;28;20037;-72
2022/07/28 11:23:45;;;;;;;4.00;3.08;;;27.80;87.70;;;;;;5066312;28;20077;-72
2022/07/28 11:26:21;;;;;;;3.65;3.20;;;28.00;88.40;;;;;;5069750;28;20040;-73
2022/07/28 11:28:59;;;;;;;6.15;3.63;;;28.10;87.80;;;;;;5071710;28;20033;-73
2022/07/28 11:31:44;;;;;;;;;;;28.20;89.20;;;;;;5059845;28;20058;-73
2022/07/28 11:34:17;;;;;;;4.70;3.03;;;28.40;86.10;;;;;;5070345;28;19963;-72
2022/07/28 11:37:01;;;;;;;4.03;2.83;;;28.30;82.60;;;;;;5055006;28;20048;-72
2022/07/28 11:39:37;;;;;;;4.55;3.00;;;28.30;82.20;;;;;;5069376;28;20053;-73
2022/07/28 11:42:29;;;;;;;3.95;3.38;;;28.40;82.80;;;;;;5053960;28;20036;-71
2022/07/28 11:45:16;;;;;;;3.53;3.00;;;28.50;83.80;;;;;;5038132;28;20656;-73
2022/07/28 11:47:48;;;;;;;4.50;3.60;;;28.60;84.70;;;;;;5073544;28;20048;-73
2022/07/28 11:50:20;;;;;;;5.18;3.28;;;28.80;84.30;;;;;;5054798;28;20047;-73
2022/07/28 11:52:53;;;;;;;4.87;3.30;;;28.80;83.80;;;;;;5054198;28;20400;-72
2022/07/28 11:55:25;;;;;;;5.28;3.13;;;28.80;82.80;;;;;;5071833;28;20063;-72
2022/07/28 11:57:56;;;;;;;2.88;2.65;;;28.90;82.70;;;;;;5079109;28;20037;-72
2022/07/28 12:00:28;;;;;;;3.38;3.05;;;28.90;81.80;;;;;;5061272;28;20044;-73
2022/07/28 12:03:04;;;;;;;6.93;3.00;;;29.00;82.10;;;;;;5055487;28;20037;-72
2022/07/28 12:05:36;;;;;;;8.48;3.33;;;29.00;81.00;;;;;;5062778;28;20131;-72
2022/07/28 12:08:07;;;;;;;3.15;2.85;;;29.00;81.10;;;;;;5071445;28;20048;-72
2022/07/28 12:10:39;;;;;;;4.22;2.67;;;29.20;80.30;;;;;;5068021;28;20051;-72
2022/07/28 12:13:11;;;;;;;4.25;2.60;;;29.30;79.40;;;;;;5071672;28;20036;-72
2022/07/28 12:15:49;;;;;;;4.93;2.70;;;29.40;77.90;;;;;;5070738;28;20064;-72
2022/07/28 12:18:21;;;;;;;3.38;2.70;;;29.50;76.70;;;;;;5068109;28;20103;-72
2022/07/28 12:20:53;;;;;;;4.78;3.00;;;29.60;77.40;;;;;;5066595;28;20051;-72
2022/07/28 12:23:30;;;;;;;5.63;2.47;;;29.50;76.40;;;;;;5052954;28;20033;-72
2022/07/28 12:26:05;;;;;;;7.43;3.35;;;29.60;75.60;;;;;;5050616;28;20044;-72
2022/07/28 12:28:37;;;;;;;2.83;2.60;;;29.70;76.40;;;;;;5059686;28;20056;-72
2022/07/28 12:31:12;;;;;;;2.67;2.47;;;29.70;73.40;;;;;;5068785;28;20048;-72
2022/07/28 12:33:44;;;;;;;3.97;2.72;;;29.80;74.20;;;;;;5068837;28;20809;-72
2022/07/28 12:36:18;;;;;;;5.68;2.63;;;29.90;74.10;;;;;;5068800;28;20047;-72
2022/07/28 12:38:51;;;;;;;3.78;2.65;;;30.00;74.20;;;;;;5061385;28;20045;-71
2022/07/28 12:41:31;;;;;;;4.80;2.53;;;30.20;74.40;;;;;;5059768;28;20055;-72
2022/07/28 12:44:04;;;;;;;5.38;2.80;;;30.30;72.10;;;;;;5064965;28;20120;-71
2022/07/28 12:46:37;;;;;;;8.07;2.92;;;30.40;72.00;;;;;;5050337;28;20033;-72
2022/07/28 12:49:19;;;;;;;2.70;2.50;;;30.40;70.90;;;;;;5049424;28;20044;-72
2022/07/28 12:51:51;;;;;;;10.50;2.80;;;30.50;70.30;;;;;;5060837;28;20043;-72
2022/07/28 12:54:36;;;;;;;3.35;2.78;;;30.60;70.80;;;;;;5046546;28;20037;-72
2022/07/28 12:57:08;;;;;;;3.70;3.13;;;30.60;67.80;;;;;;5066302;28;20648;-71
2022/07/28 12:59:39;;;;;;;4.07;2.53;;;30.40;69.20;;;;;;5070190;28;20412;-71
2022/07/28 13:02:11;;;;;;;2.97;2.73;;;30.30;69.20;;;;;;5062679;28;20118;-72
2022/07/28 13:04:47;;;;;;;3.53;2.42;;;30.30;69.70;;;;;;5067622;28;20033;-72
2022/07/28 13:07:19;;;;;;;4.25;2.58;;;30.40;69.80;;;;;;5070236;28;20040;-71
2022/07/28 13:10:03;;;;;;;4.63;3.20;;;30.50;70.50;;;;;;5062754;28;20040;-72
2022/07/28 13:12:31;;;;;;;2.75;2.35;;;30.70;69.40;;;;;;5064618;28;20049;-72
2022/07/28 13:15:13;;;;;;;6.18;2.80;;;30.80;69.60;;;;;;5061935;28;20045;-72
2022/07/28 13:17:53;;;;;;;3.87;2.67;;;30.90;67.70;;;;;;5063228;28;20037;-72
2022/07/28 13:20:26;;;;;;;4.28;2.72;;;30.80;67.50;;;;;;5063074;28;20563;-72